createdAt,value
2018-11-05T00:02:26.308Z,12.13
2018-11-05T00:04:53.733Z,10.20
2018-11-05T00:07:20.418Z,8.13
2018-11-05T00:09:47.076Z,9.53
2018-11-05T00:12:13.740Z,10.60
2018-11-05T00:14:40.453Z,10.03
2018-11-05T00:17:07.108Z,9.57
2018-11-05T00:19:33.768Z,8.73
2018-11-05T00:22:00.460Z,9.53
2018-11-05T00:24:27.161Z,7.43
2018-11-05T00:26:54.563Z,10.53
2018-11-05T00:29:21.255Z,9.40
2018-11-05T00:31:48.677Z,8.00
2018-11-05T00:34:15.358Z,8.67
2018-11-05T00:36:42.812Z,12.13
2018-11-05T00:39:10.217Z,18.97
2018-11-05T00:41:37.640Z,11.70
2018-11-05T00:44:04.368Z,8.23
2018-11-05T00:46:31.769Z,7.93
2018-11-05T00:48:58.453Z,8.37
2018-11-05T00:51:31.119Z,8.43
2018-11-05T00:53:58.528Z,12.17
2018-11-05T00:56:25.214Z,7.17
2018-11-05T00:58:51.878Z,7.43
2018-11-05T01:01:18.571Z,7.37
2018-11-05T01:03:45.360Z,7.90
2018-11-05T01:06:12.778Z,6.23
2018-11-05T01:08:39.436Z,7.80
2018-11-05T01:11:06.178Z,6.20
2018-11-05T01:13:33.608Z,6.80
2018-11-05T01:16:00.276Z,6.70
2018-11-05T01:18:27.854Z,6.17
2018-11-05T01:20:54.512Z,6.10
2018-11-05T01:23:21.279Z,6.80
2018-11-05T01:25:48.027Z,10.73
2018-11-05T01:28:14.676Z,6.00
2018-11-05T01:30:41.494Z,6.03
2018-11-05T01:33:08.146Z,17.63
2018-11-05T01:35:34.809Z,5.93
2018-11-05T01:38:02.357Z,5.67
2018-11-05T01:40:29.000Z,5.90
2018-11-05T01:42:55.679Z,5.30
2018-11-05T01:45:22.388Z,5.50
2018-11-05T01:47:49.805Z,6.60
2018-11-05T01:50:16.458Z,10.93
2018-11-05T01:52:43.264Z,8.33
2018-11-05T01:55:09.989Z,5.37
2018-11-05T01:57:36.696Z,4.77
2018-11-05T02:00:03.476Z,7.07
2018-11-05T02:02:30.225Z,4.57
2018-11-05T02:04:56.954Z,3.80
2018-11-05T02:07:23.786Z,5.57
2018-11-05T02:09:50.468Z,7.07
2018-11-05T02:12:17.124Z,9.37
2018-11-05T02:14:43.931Z,5.57
2018-11-05T02:17:10.591Z,4.83
2018-11-05T02:19:37.230Z,3.83
2018-11-05T02:22:04.109Z,4.17
2018-11-05T02:24:31.510Z,4.93
2018-11-05T02:26:58.210Z,5.77
2018-11-05T02:29:25.036Z,5.80
2018-11-05T02:31:51.720Z,5.10
2018-11-05T02:34:18.381Z,6.00
2018-11-05T02:36:45.115Z,4.70
2018-11-05T02:39:11.766Z,4.70
2018-11-05T02:41:38.479Z,4.80
2018-11-05T02:44:05.293Z,4.67
2018-11-05T02:46:31.947Z,4.17
2018-11-05T02:48:58.643Z,6.00
2018-11-05T02:51:25.300Z,5.90
2018-11-05T02:53:52.694Z,6.23
2018-11-05T02:56:19.470Z,3.83
2018-11-05T02:58:46.194Z,4.43
2018-11-05T03:01:12.875Z,5.07
2018-11-05T03:03:39.944Z,5.43
2018-11-05T03:06:06.644Z,5.30
2018-11-05T03:08:33.271Z,4.17
2018-11-05T03:11:00.057Z,3.70
2018-11-05T03:13:27.436Z,3.83
2018-11-05T03:15:54.128Z,5.00
2018-11-05T03:18:21.599Z,2.50
2018-11-05T03:20:49.077Z,2.33
2018-11-05T03:23:15.755Z,3.03
2018-11-05T03:25:42.463Z,4.13
2018-11-05T03:28:09.155Z,3.60
2018-11-05T03:30:35.821Z,3.33
2018-11-05T03:33:03.349Z,3.10
2018-11-05T03:35:29.981Z,2.60
2018-11-05T03:37:56.655Z,4.03
2018-11-05T03:40:24.198Z,3.93
2018-11-05T03:42:51.624Z,3.43
2018-11-05T03:45:18.301Z,2.60
2018-11-05T03:47:45.088Z,2.67
2018-11-05T03:50:12.538Z,3.77
2018-11-05T03:52:39.362Z,4.30
2018-11-05T03:55:06.052Z,2.93
2018-11-05T03:57:32.712Z,4.50
2018-11-05T04:00:00.201Z,5.27
2018-11-05T04:02:26.899Z,7.20
2018-11-05T04:04:53.615Z,3.10
2018-11-05T04:07:20.461Z,2.90
2018-11-05T04:09:47.184Z,4.77
2018-11-05T04:12:13.871Z,2.70
2018-11-05T04:14:40.581Z,3.83
2018-11-05T04:17:07.234Z,2.57
2018-11-05T04:19:33.914Z,3.03
2018-11-05T04:22:00.625Z,5.17
2018-11-05T04:24:28.070Z,4.63
2018-11-05T04:26:54.889Z,2.73
2018-11-05T04:29:21.557Z,2.47
2018-11-05T04:31:48.258Z,3.13
2018-11-05T04:34:15.872Z,5.03
2018-11-05T04:36:43.282Z,2.40
2018-11-05T04:39:09.956Z,4.10
2018-11-05T04:41:36.757Z,4.37
2018-11-05T04:44:03.464Z,2.70
2018-11-05T04:46:30.861Z,2.50
2018-11-05T04:48:57.596Z,2.77
2018-11-05T04:51:24.279Z,3.27
2018-11-05T04:53:51.846Z,2.30
2018-11-05T04:56:19.281Z,2.43
2018-11-05T04:58:45.955Z,3.63
2018-11-05T05:01:12.709Z,2.60
2018-11-05T05:03:39.394Z,2.27
2018-11-05T05:06:06.104Z,2.97
2018-11-05T05:08:32.899Z,3.40
2018-11-05T05:11:00.292Z,2.63
2018-11-05T05:13:26.950Z,2.20
2018-11-05T05:15:53.743Z,2.73
2018-11-05T05:18:21.128Z,1.73
2018-11-05T05:20:47.795Z,2.20
2018-11-05T05:23:14.744Z,3.87
2018-11-05T05:25:41.396Z,2.80
2018-11-05T05:28:08.073Z,2.50
2018-11-05T05:30:34.921Z,2.90
2018-11-05T05:33:01.734Z,2.23
2018-11-05T05:35:28.505Z,3.23
2018-11-05T05:37:55.129Z,2.50
2018-11-05T05:40:22.561Z,2.50
2018-11-05T05:42:49.452Z,2.23
2018-11-05T05:45:16.122Z,2.30
2018-11-05T05:47:42.807Z,2.43
2018-11-05T05:50:10.490Z,2.27
2018-11-05T05:52:37.366Z,2.17
2018-11-05T05:55:04.136Z,4.40
2018-11-05T05:57:31.576Z,2.13
2018-11-05T05:59:58.777Z,1.80
2018-11-05T06:02:25.451Z,1.73
2018-11-05T06:04:53.112Z,1.87
2018-11-05T06:07:20.095Z,2.70
2018-11-05T06:09:47.526Z,5.77
2018-11-05T06:12:14.215Z,2.43
2018-11-05T06:14:41.037Z,2.40
2018-11-05T06:17:08.452Z,1.83
2018-11-05T06:19:35.187Z,1.80
2018-11-05T06:22:02.141Z,1.67
2018-11-05T06:24:28.703Z,2.60
2018-11-05T06:26:55.363Z,1.43
2018-11-05T06:29:22.169Z,2.60
2018-11-05T06:31:48.862Z,2.83
2018-11-05T06:34:15.532Z,3.33
2018-11-05T06:36:42.233Z,2.83
2018-11-05T06:39:09.072Z,2.57
2018-11-05T06:41:35.828Z,3.20
2018-11-05T06:44:02.471Z,2.00
2018-11-05T06:46:29.141Z,3.13
2018-11-05T06:48:55.973Z,2.13
2018-11-05T06:51:22.840Z,2.13
2018-11-05T06:53:50.976Z,1.87
2018-11-05T06:56:17.612Z,2.40
2018-11-05T06:58:44.393Z,4.10
2018-11-05T07:01:11.064Z,2.30
2018-11-05T07:03:38.432Z,13.30
2018-11-05T07:06:05.147Z,11.97
2018-11-05T07:08:31.850Z,10.20
2018-11-05T07:10:58.567Z,30.73
2018-11-05T07:13:25.240Z,17.80
2018-11-05T07:15:51.929Z,17.83
2018-11-05T07:18:20.030Z,11.30
2018-11-05T07:20:47.370Z,4.77
2018-11-05T07:23:14.022Z,8.03
2018-11-05T07:25:40.764Z,2.80
2018-11-05T07:28:07.502Z,1.83
2018-11-05T07:30:34.160Z,3.43
2018-11-05T07:33:00.860Z,1.80
2018-11-05T07:35:27.539Z,2.13
2018-11-05T07:37:54.337Z,2.83
2018-11-05T07:40:21.015Z,3.60
2018-11-05T07:42:47.709Z,2.10
2018-11-05T07:45:14.596Z,5.03
2018-11-05T07:47:41.287Z,2.10
2018-11-05T07:50:07.995Z,3.30
2018-11-05T07:52:35.429Z,3.57
2018-11-05T07:55:02.111Z,3.73
2018-11-05T07:57:28.945Z,2.03
2018-11-05T07:59:56.371Z,5.00
2018-11-05T08:02:23.728Z,1.90
2018-11-05T08:04:50.982Z,2.53
2018-11-05T08:07:17.697Z,1.77
2018-11-05T08:09:44.391Z,1.93
2018-11-05T08:12:11.910Z,2.20
2018-11-05T08:14:38.596Z,1.87
2018-11-05T08:17:06.068Z,2.37
2018-11-05T08:19:34.163Z,2.87
2018-11-05T08:22:00.834Z,2.03
2018-11-05T08:24:27.530Z,3.00
2018-11-05T08:26:54.383Z,4.60
2018-11-05T08:29:21.032Z,1.77
2018-11-05T08:31:47.796Z,2.20
2018-11-05T08:34:14.646Z,1.67
2018-11-05T08:36:41.266Z,2.80
2018-11-05T08:39:07.974Z,2.77
2018-11-05T08:41:34.754Z,2.77
2018-11-05T08:44:01.445Z,3.63
2018-11-05T08:46:28.076Z,3.83
2018-11-05T08:48:54.856Z,2.30
2018-11-05T08:51:22.435Z,3.27
2018-11-05T08:53:49.095Z,4.37
2018-11-05T08:56:16.498Z,2.50
2018-11-05T08:58:43.150Z,3.77
2018-11-05T09:01:09.965Z,3.03
2018-11-05T09:03:36.636Z,3.80
2018-11-05T09:06:03.303Z,2.73
2018-11-05T09:08:30.006Z,4.13
2018-11-05T09:10:57.699Z,3.23
2018-11-05T09:13:25.077Z,5.27
2018-11-05T09:15:52.619Z,4.97
2018-11-05T09:18:19.397Z,3.60
2018-11-05T09:20:46.211Z,5.13
2018-11-05T09:23:13.626Z,3.87
2018-11-05T09:25:40.284Z,3.40
2018-11-05T09:28:07.281Z,6.30
2018-11-05T09:30:33.833Z,5.43
2018-11-05T09:33:00.498Z,4.37
2018-11-05T09:35:27.274Z,4.13
2018-11-05T09:37:54.690Z,5.33
2018-11-05T09:40:21.342Z,3.97
2018-11-05T09:42:48.224Z,4.27
2018-11-05T09:45:14.972Z,4.83
2018-11-05T09:47:41.616Z,4.77
2018-11-05T09:50:08.491Z,5.43
2018-11-05T09:52:35.166Z,4.17
2018-11-05T09:55:02.602Z,3.73
2018-11-05T09:57:29.392Z,3.80
2018-11-05T09:59:56.060Z,4.23
2018-11-05T10:02:22.948Z,3.87
2018-11-05T10:04:51.301Z,4.43
2018-11-05T10:07:17.698Z,4.57
2018-11-05T10:09:44.409Z,3.60
2018-11-05T10:12:11.246Z,4.53
2018-11-05T10:14:38.660Z,2.90
2018-11-05T10:17:06.184Z,3.27
2018-11-05T10:19:33.085Z,3.07
2018-11-05T10:22:00.202Z,3.43
2018-11-05T10:24:26.982Z,2.90
2018-11-05T10:26:53.872Z,3.10
2018-11-05T10:29:20.736Z,3.07
2018-11-05T10:31:47.896Z,3.20
2018-11-05T10:34:15.577Z,2.83
2018-11-05T10:36:44.724Z,3.00
2018-11-05T10:39:11.989Z,3.13
2018-11-05T10:41:39.455Z,2.97
2018-11-05T10:44:06.125Z,2.90
2018-11-05T10:46:33.541Z,3.10
2018-11-05T10:49:00.922Z,3.00
2018-11-05T10:51:28.164Z,2.83
2018-11-05T10:53:54.837Z,3.10
2018-11-05T10:56:22.231Z,2.63
2018-11-05T10:58:49.060Z,3.10
2018-11-05T11:01:15.736Z,3.20
2018-11-05T11:03:42.586Z,2.63
2018-11-05T11:06:09.341Z,2.43
2018-11-05T11:08:36.870Z,2.43
2018-11-05T11:11:03.701Z,2.33
2018-11-05T11:13:31.237Z,2.83
2018-11-05T11:15:57.937Z,2.27
2018-11-05T11:18:24.654Z,2.70
2018-11-05T11:20:51.424Z,2.80
2018-11-05T11:23:18.984Z,2.30
2018-11-05T11:25:45.736Z,2.43
2018-11-05T11:28:13.243Z,2.20
2018-11-05T11:30:40.810Z,2.43
2018-11-05T11:33:07.464Z,2.20
2018-11-05T11:35:34.138Z,3.43
2018-11-05T11:38:02.479Z,2.33
2018-11-05T11:40:29.150Z,2.47
2018-11-05T11:42:56.341Z,3.10
2018-11-05T11:45:23.161Z,2.27
2018-11-05T11:47:49.830Z,1.93
2018-11-05T11:50:17.205Z,2.13
2018-11-05T11:52:44.301Z,2.07
2018-11-05T11:55:11.028Z,2.20
2018-11-05T11:57:38.849Z,2.10
2018-11-05T12:00:05.957Z,2.20
2018-11-05T12:02:32.695Z,1.93
2018-11-05T12:04:59.766Z,1.90
2018-11-05T12:07:27.516Z,1.90
2018-11-05T12:09:54.937Z,2.00
2018-11-05T12:12:21.736Z,1.83
2018-11-05T12:14:48.769Z,1.93
2018-11-05T12:17:15.353Z,2.10
2018-11-05T12:19:42.795Z,2.10
2018-11-05T12:22:09.614Z,2.00
2018-11-05T12:24:36.325Z,2.30
2018-11-05T12:27:03.085Z,1.80
2018-11-05T12:29:29.755Z,2.00
2018-11-05T12:31:56.403Z,2.27
2018-11-05T12:34:23.076Z,2.40
2018-11-05T12:36:49.768Z,2.57
2018-11-05T12:39:16.536Z,2.17
2018-11-05T12:41:43.214Z,2.87
2018-11-05T12:44:09.906Z,2.57
2018-11-05T12:46:36.864Z,3.00
2018-11-05T12:49:04.352Z,2.60
2018-11-05T12:51:31.009Z,2.63
2018-11-05T12:53:57.703Z,2.80
2018-11-05T12:56:25.077Z,2.73
2018-11-05T12:58:51.798Z,2.63
2018-11-05T13:01:19.307Z,2.83
2018-11-05T13:03:46.757Z,2.90
2018-11-05T13:06:13.721Z,3.20
2018-11-05T13:08:40.383Z,3.10
2018-11-05T13:11:07.098Z,3.20
2018-11-05T13:13:34.712Z,3.30
2018-11-05T13:16:02.323Z,2.50
2018-11-05T13:18:29.173Z,3.20
2018-11-05T13:20:56.447Z,3.33
2018-11-05T13:23:23.895Z,3.50
2018-11-05T13:25:50.704Z,3.23
2018-11-05T13:28:18.415Z,3.13
2018-11-05T13:30:46.169Z,3.53
2018-11-05T13:33:13.588Z,3.07
2018-11-05T13:35:40.273Z,3.40
2018-11-05T13:38:07.408Z,3.73
2018-11-05T13:40:33.758Z,3.40
2018-11-05T13:43:01.200Z,3.40
2018-11-05T13:45:28.057Z,3.63
2018-11-05T13:47:55.431Z,3.70
2018-11-05T13:50:21.886Z,3.80
2018-11-05T13:52:48.310Z,3.63
2018-11-05T13:55:15.186Z,4.00
2018-11-05T13:57:56.781Z,4.03
2018-11-05T14:00:24.404Z,3.67
2018-11-05T14:02:51.100Z,3.77
2018-11-05T14:05:17.900Z,3.93
2018-11-05T14:07:46.287Z,4.23
2018-11-05T14:10:12.951Z,3.97
2018-11-05T14:12:39.630Z,4.73
2018-11-05T14:15:06.481Z,4.93
2018-11-05T14:17:33.176Z,5.07
2018-11-05T14:19:59.826Z,5.30
2018-11-05T14:22:26.522Z,5.43
2018-11-05T14:24:53.185Z,5.40
2018-11-05T14:27:19.852Z,6.60
2018-11-05T14:29:47.033Z,5.53
2018-11-05T14:32:13.293Z,5.60
2018-11-05T14:34:40.006Z,5.40
2018-11-05T14:37:06.859Z,5.60
2018-11-05T14:39:33.529Z,5.40
2018-11-05T14:42:00.353Z,4.90
2018-11-05T14:44:27.120Z,5.60
2018-11-05T14:46:53.817Z,5.77
2018-11-05T14:49:20.469Z,5.97
2018-11-05T14:51:47.286Z,5.93
2018-11-05T14:54:13.956Z,5.80
2018-11-05T14:56:40.604Z,5.70
2018-11-05T14:59:07.470Z,6.00
2018-11-05T15:01:34.136Z,6.03
2018-11-05T15:04:00.782Z,4.90
2018-11-05T15:06:27.603Z,5.10
2018-11-05T15:08:54.998Z,5.87
2018-11-05T15:11:21.654Z,6.23
2018-11-05T15:13:48.547Z,6.30
2018-11-05T15:16:15.213Z,6.40
2018-11-05T15:18:41.991Z,7.30
2018-11-05T15:21:08.651Z,6.50
2018-11-05T15:23:35.387Z,6.33
2018-11-05T15:26:17.077Z,6.50
2018-11-05T15:28:43.895Z,6.43
2018-11-05T15:31:10.552Z,6.73
2018-11-05T15:33:37.332Z,6.33
2018-11-05T15:36:04.044Z,6.97
2018-11-05T15:38:31.439Z,6.97
2018-11-05T15:40:58.099Z,6.50
2018-11-05T15:43:24.751Z,6.03
2018-11-05T15:45:51.418Z,5.63
2018-11-05T15:48:19.058Z,6.60
2018-11-05T15:50:47.233Z,6.13
2018-11-05T15:53:14.284Z,6.17
2018-11-05T15:55:40.648Z,5.30
2018-11-05T15:58:08.117Z,5.30
2018-11-05T16:00:34.922Z,5.57
2018-11-05T16:03:02.331Z,4.70
2018-11-05T16:05:28.985Z,4.83
2018-11-05T16:07:55.767Z,5.50
2018-11-05T16:10:23.180Z,5.27
2018-11-05T16:12:49.838Z,4.67
2018-11-05T16:15:16.572Z,5.23
2018-11-05T16:17:43.253Z,5.00
2018-11-05T16:20:10.106Z,5.40
2018-11-05T16:22:36.849Z,5.40
2018-11-05T16:25:03.560Z,5.20
2018-11-05T16:27:30.976Z,6.17
2018-11-05T16:29:57.724Z,4.27
2018-11-05T16:32:24.544Z,4.23
2018-11-05T16:34:51.360Z,4.33
2018-11-05T16:37:17.926Z,4.33
2018-11-05T16:39:44.791Z,3.93
2018-11-05T16:42:11.374Z,3.80
2018-11-05T16:44:38.077Z,4.43
2018-11-05T16:47:04.945Z,3.60
2018-11-05T16:49:32.335Z,3.60
2018-11-05T16:51:59.071Z,3.60
2018-11-05T16:54:25.725Z,3.30
2018-11-05T16:56:52.403Z,3.40
2018-11-05T16:59:19.191Z,3.70
2018-11-05T17:01:46.572Z,2.90
2018-11-05T17:04:13.697Z,2.87
2018-11-05T17:06:40.452Z,2.80
2018-11-05T17:09:07.187Z,3.13
2018-11-05T17:11:33.843Z,3.10
2018-11-05T17:14:00.545Z,2.80
2018-11-05T17:16:27.203Z,2.73
2018-11-05T17:18:53.883Z,2.90
2018-11-05T17:21:20.731Z,2.43
2018-11-05T17:23:47.367Z,2.57
2018-11-05T17:26:14.917Z,2.73
2018-11-05T17:28:41.653Z,2.90
2018-11-05T17:31:08.325Z,2.70
2018-11-05T17:33:35.815Z,2.50
2018-11-05T17:36:03.278Z,2.70
2018-11-05T17:38:29.928Z,2.50
2018-11-05T17:40:56.570Z,2.23
2018-11-05T17:43:23.484Z,2.40
2018-11-05T17:45:50.138Z,2.30
2018-11-05T17:48:16.793Z,2.10
2018-11-05T17:50:43.474Z,1.97
2018-11-05T17:53:10.175Z,2.10
2018-11-05T17:55:36.849Z,2.20
2018-11-05T17:58:04.408Z,2.00
2018-11-05T18:00:31.073Z,2.13
2018-11-05T18:02:57.749Z,2.10
2018-11-05T18:05:24.510Z,2.00
2018-11-05T18:07:51.181Z,1.83
2018-11-05T18:10:17.862Z,2.53
2018-11-05T18:12:44.553Z,1.77
2018-11-05T18:15:11.984Z,2.10
2018-11-05T18:17:38.791Z,1.83
2018-11-05T18:20:05.483Z,2.10
2018-11-05T18:22:32.172Z,2.20
2018-11-05T18:24:58.988Z,2.13
2018-11-05T18:27:25.655Z,2.30
2018-11-05T18:29:52.314Z,2.13
2018-11-05T18:32:19.028Z,2.57
2018-11-05T18:34:45.682Z,2.73
2018-11-05T18:37:12.417Z,2.70
2018-11-05T18:39:39.084Z,2.90
2018-11-05T18:42:06.508Z,3.03
2018-11-05T18:44:33.284Z,2.90
2018-11-05T18:47:00.229Z,3.73
2018-11-05T18:49:27.655Z,3.13
2018-11-05T18:51:54.642Z,3.70
2018-11-05T18:54:22.038Z,3.57
2018-11-05T18:56:48.753Z,3.17
2018-11-05T18:59:15.615Z,2.90
2018-11-05T19:01:42.279Z,3.40
2018-11-05T19:04:08.955Z,3.50
2018-11-05T19:06:36.521Z,3.20
2018-11-05T19:09:04.035Z,2.93
2018-11-05T19:11:30.699Z,3.47
2018-11-05T19:13:57.384Z,5.00
2018-11-05T19:16:24.087Z,3.10
2018-11-05T19:18:51.658Z,3.40
2018-11-05T19:21:19.279Z,3.37
2018-11-05T19:23:46.734Z,3.00
2018-11-05T19:26:14.655Z,3.40
2018-11-05T19:28:41.937Z,3.17
2018-11-05T19:31:09.624Z,3.30
2018-11-05T19:33:36.624Z,3.17
2018-11-05T19:36:03.679Z,3.13
2018-11-05T19:38:31.263Z,3.63
2018-11-05T19:40:58.602Z,3.00
2018-11-05T19:43:25.646Z,2.57
2018-11-05T19:48:35.386Z,4.23
2018-11-05T19:51:03.267Z,3.40
2018-11-05T19:53:31.006Z,2.77
2018-11-05T19:55:58.483Z,2.77
2018-11-05T19:58:27.264Z,2.67
2018-11-05T20:00:54.188Z,3.00
2018-11-05T20:03:22.178Z,2.63
2018-11-05T20:05:50.763Z,2.83
2018-11-05T20:08:22.622Z,2.47
2018-11-05T20:10:49.787Z,2.30
2018-11-05T20:13:16.942Z,2.33
2018-11-05T20:15:45.461Z,2.70
2018-11-05T20:18:13.684Z,2.27
2018-11-05T20:20:42.129Z,2.23
2018-11-05T20:23:10.468Z,1.90
2018-11-05T20:25:39.116Z,2.10
2018-11-05T20:28:07.548Z,2.50
2018-11-05T20:30:38.936Z,2.37
2018-11-05T20:33:04.857Z,2.20
2018-11-05T20:35:31.322Z,2.40
2018-11-05T20:37:58.275Z,2.40
2018-11-05T20:40:25.610Z,2.17
2018-11-05T20:42:54.410Z,2.40
2018-11-05T20:45:22.170Z,2.50
2018-11-05T20:47:51.406Z,2.50
2018-11-05T20:50:20.596Z,2.40
2018-11-05T20:52:49.352Z,2.50
2018-11-05T20:55:16.921Z,2.93
2018-11-05T20:57:45.174Z,2.80
2018-11-05T21:00:13.474Z,3.07
2018-11-05T21:02:42.466Z,2.77
2018-11-05T21:05:14.022Z,2.70
2018-11-05T21:07:41.887Z,2.40
2018-11-05T21:10:10.617Z,2.43
2018-11-05T21:12:39.016Z,2.77
2018-11-05T21:15:06.465Z,2.47
2018-11-05T21:17:34.538Z,2.50
2018-11-05T21:20:02.860Z,2.50
2018-11-05T21:22:31.807Z,3.43
2018-11-05T21:25:00.260Z,2.73
2018-11-05T21:27:27.310Z,2.50
2018-11-05T21:29:58.157Z,2.80
2018-11-05T21:32:25.767Z,2.23
2018-11-05T21:34:54.719Z,2.30
2018-11-05T21:37:22.798Z,2.30
2018-11-05T21:39:51.934Z,2.27
2018-11-05T21:42:19.905Z,2.13
2018-11-05T21:44:47.118Z,2.30
2018-11-05T21:47:15.993Z,2.40
2018-11-05T21:49:43.918Z,2.40
2018-11-05T21:52:12.661Z,2.40
2018-11-05T21:54:41.594Z,2.43
2018-11-05T21:57:09.195Z,2.37
2018-11-05T21:59:36.591Z,2.23
2018-11-05T22:02:04.902Z,2.10
2018-11-05T22:04:32.756Z,2.40
2018-11-05T22:07:00.585Z,2.20
2018-11-05T22:09:28.109Z,2.57
2018-11-05T22:11:55.848Z,2.33
2018-11-05T22:14:24.015Z,2.50
2018-11-05T22:16:52.605Z,2.67
2018-11-05T22:19:20.465Z,2.10
2018-11-05T22:21:48.799Z,2.13
2018-11-05T22:24:18.147Z,2.47
2018-11-05T22:26:47.245Z,1.97
2018-11-05T22:29:17.779Z,2.30
2018-11-05T22:31:46.663Z,2.37
2018-11-05T22:34:14.324Z,2.00
2018-11-05T22:36:44.143Z,2.40
2018-11-05T22:39:13.000Z,2.10
2018-11-05T22:41:43.367Z,1.90
2018-11-05T22:44:12.138Z,1.80
2018-11-05T22:46:39.395Z,2.10
2018-11-05T22:49:08.182Z,1.97
2018-11-05T22:51:35.701Z,2.00
2018-11-05T22:54:03.823Z,2.03
2018-11-05T22:56:32.804Z,1.77
2018-11-05T22:59:02.285Z,1.90
2018-11-05T23:01:31.202Z,1.83
2018-11-05T23:04:01.379Z,2.40
2018-11-05T23:06:30.621Z,2.00
2018-11-05T23:08:58.779Z,2.17
2018-11-05T23:11:28.005Z,1.90
2018-11-05T23:13:56.477Z,1.70
2018-11-05T23:16:25.680Z,2.00
2018-11-05T23:18:53.746Z,1.90
2018-11-05T23:21:23.456Z,1.90
2018-11-05T23:23:52.995Z,1.80
2018-11-05T23:26:22.053Z,1.90
2018-11-05T23:28:51.664Z,2.13
2018-11-05T23:31:20.836Z,1.50
2018-11-05T23:33:49.127Z,1.80
2018-11-05T23:36:16.434Z,1.90
2018-11-05T23:38:44.744Z,1.80
2018-11-05T23:41:13.589Z,2.00
2018-11-05T23:43:41.938Z,1.87
2018-11-05T23:46:10.134Z,2.13
2018-11-05T23:48:39.541Z,2.13
2018-11-05T23:51:09.032Z,3.20
2018-11-05T23:53:38.096Z,3.67
2018-11-05T23:56:07.149Z,2.20
2018-11-05T23:58:36.415Z,2.00
